createdAt,value
2022-11-10T00:02:56.220Z,97880.25
2022-11-10T00:06:16.250Z,97878.53
2022-11-10T00:09:35.988Z,97891.88
2022-11-10T00:12:59.459Z,97901.75
2022-11-10T00:16:38.129Z,97892.31
2022-11-10T00:19:58.431Z,97886.63
2022-11-10T00:23:18.712Z,97893.47
2022-11-10T00:26:38.913Z,97917.41
2022-11-10T00:29:58.713Z,97892.88
2022-11-10T00:33:18.946Z,97892.72
2022-11-10T00:36:39.008Z,97905.56
2022-11-10T00:39:58.992Z,97909.00
2022-11-10T00:43:23.834Z,97924.50
2022-11-10T00:46:46.508Z,97921.16
2022-11-10T00:50:06.978Z,97926.66
2022-11-10T00:53:27.102Z,97924.00
2022-11-10T00:56:46.941Z,97925.28
2022-11-10T01:00:07.224Z,97930.47
2022-11-10T01:03:27.193Z,97933.63
2022-11-10T01:06:48.338Z,97934.44
2022-11-10T01:10:08.745Z,97926.91
2022-11-10T01:13:29.003Z,97933.38
2022-11-10T01:16:48.881Z,97930.56
2022-11-10T01:20:09.159Z,97921.38
2022-11-10T01:23:29.342Z,97929.53
2022-11-10T01:26:49.761Z,97935.81
2022-11-10T01:30:09.849Z,97942.31
2022-11-10T01:33:29.913Z,97948.81
2022-11-10T01:36:49.951Z,97930.84
2022-11-10T01:40:10.356Z,97923.66
2022-11-10T01:43:30.937Z,97925.69
2022-11-10T01:46:51.022Z,97949.84
2022-11-10T01:50:11.341Z,97939.63
2022-11-10T01:53:31.996Z,97939.13
2022-11-10T01:56:53.313Z,97952.03
2022-11-10T02:00:13.684Z,97940.00
2022-11-10T02:03:39.785Z,97930.88
2022-11-10T02:07:00.341Z,97956.06
2022-11-10T02:10:20.751Z,97948.97
2022-11-10T02:13:40.941Z,97968.16
2022-11-10T02:17:00.821Z,97979.94
2022-11-10T02:20:21.245Z,97981.53
2022-11-10T02:23:46.075Z,97998.00
2022-11-10T02:27:06.207Z,97966.94
2022-11-10T02:30:27.866Z,97999.19
2022-11-10T02:33:48.209Z,97970.19
2022-11-10T02:37:07.894Z,98013.09
2022-11-10T02:40:27.703Z,97971.66
2022-11-10T02:43:47.641Z,97980.63
2022-11-10T02:47:12.531Z,97981.13
2022-11-10T02:50:32.433Z,97963.38
2022-11-10T02:53:52.345Z,97994.63
2022-11-10T02:57:12.885Z,97983.63
2022-11-10T03:00:32.750Z,97951.75
2022-11-10T03:03:52.526Z,97964.00
2022-11-10T03:07:12.467Z,97964.59
2022-11-10T03:10:32.831Z,97988.97
2022-11-10T03:14:01.445Z,97979.38
2022-11-10T03:17:22.262Z,97960.38
2022-11-10T03:20:42.271Z,97951.75
2022-11-10T03:24:02.243Z,97958.97
2022-11-10T03:27:22.095Z,97939.31
2022-11-10T03:30:42.740Z,97962.25
2022-11-10T03:34:02.913Z,97938.22
2022-11-10T03:37:22.895Z,97936.03
2022-11-10T03:41:17.127Z,97944.69
2022-11-10T03:44:23.101Z,97934.94
2022-11-10T03:47:49.497Z,97940.09
2022-11-10T03:51:09.323Z,97934.75
2022-11-10T03:54:29.180Z,97989.06
2022-11-10T03:57:49.077Z,97957.09
2022-11-10T04:01:09.078Z,97954.22
2022-11-10T04:04:48.159Z,97954.03
2022-11-10T04:08:31.103Z,97960.34
2022-11-10T04:12:09.999Z,97974.69
2022-11-10T04:15:42.301Z,97968.44
2022-11-10T04:19:02.290Z,97986.97
2022-11-10T04:22:42.201Z,97941.44
2022-11-10T04:26:22.106Z,97940.34
2022-11-10T04:29:42.311Z,97978.72
2022-11-10T04:33:02.299Z,97979.97
2022-11-10T04:36:23.652Z,97984.97
2022-11-10T04:39:43.563Z,98007.59
2022-11-10T04:43:03.612Z,98003.38
2022-11-10T04:46:23.628Z,98016.56
2022-11-10T04:49:43.506Z,98016.25
2022-11-10T04:53:03.436Z,98049.84
2022-11-10T04:56:23.960Z,98030.09
2022-11-10T04:59:44.072Z,98020.78
2022-11-10T05:03:05.307Z,98017.81
2022-11-10T05:06:25.380Z,98029.91
2022-11-10T05:09:45.652Z,98032.88
2022-11-10T05:13:05.727Z,98029.31
2022-11-10T05:16:25.945Z,98022.56
2022-11-10T05:19:47.441Z,98026.19
2022-11-10T05:23:26.468Z,98020.06
2022-11-10T05:26:46.618Z,98012.06
2022-11-10T05:30:06.971Z,98023.84
2022-11-10T05:33:27.034Z,98038.03
2022-11-10T05:36:46.921Z,98036.47
2022-11-10T05:40:07.224Z,98027.06
2022-11-10T05:43:27.193Z,98016.97
2022-11-10T05:46:48.429Z,98038.69
2022-11-10T05:50:08.805Z,98044.50
2022-11-10T05:53:28.896Z,98040.44
2022-11-10T05:56:48.963Z,98039.78
2022-11-10T06:00:09.799Z,98043.09
2022-11-10T06:03:30.033Z,98049.06
2022-11-10T06:06:50.410Z,98056.63
2022-11-10T06:10:10.825Z,98065.63
2022-11-10T06:13:30.762Z,98065.75
2022-11-10T06:16:50.628Z,98060.13
2022-11-10T06:20:10.716Z,98054.00
2022-11-10T06:23:30.592Z,98059.34
2022-11-10T06:26:50.416Z,98070.03
2022-11-10T06:30:10.632Z,98047.72
2022-11-10T06:33:30.469Z,98049.13
2022-11-10T06:36:50.368Z,98052.56
2022-11-10T06:40:10.804Z,98042.94
2022-11-10T06:43:30.766Z,98070.63
2022-11-10T06:46:50.613Z,98079.75
2022-11-10T06:50:10.551Z,98083.00
2022-11-10T06:53:30.621Z,98066.03
2022-11-10T06:56:51.035Z,98069.47
2022-11-10T07:00:11.342Z,98076.75
2022-11-10T07:03:32.387Z,98067.75
2022-11-10T07:06:52.525Z,98076.75
2022-11-10T07:10:12.675Z,98064.78
2022-11-10T07:13:32.594Z,98055.16
2022-11-10T07:16:52.489Z,98061.44
2022-11-10T07:20:12.421Z,98053.59
2022-11-10T07:23:33.571Z,98049.53
2022-11-10T07:26:53.469Z,98053.16
2022-11-10T07:30:13.436Z,98057.72
2022-11-10T07:33:34.505Z,98076.75
2022-11-10T07:36:54.995Z,98053.16
2022-11-10T07:40:15.676Z,98066.41
2022-11-10T07:43:35.751Z,98072.72
2022-11-10T07:46:56.093Z,98072.56
2022-11-10T07:50:16.642Z,98090.66
2022-11-10T07:53:36.512Z,98084.75
2022-11-10T07:56:56.560Z,98099.19
2022-11-10T08:00:16.863Z,98097.78
2022-11-10T08:03:36.580Z,98091.66
2022-11-10T08:06:58.769Z,98095.44
2022-11-10T08:10:18.872Z,98111.13
2022-11-10T08:13:39.916Z,98132.16
2022-11-10T08:16:59.872Z,98111.91
2022-11-10T08:20:20.309Z,98113.47
2022-11-10T08:23:40.203Z,98109.28
2022-11-10T08:27:00.628Z,98110.63
2022-11-10T08:30:20.493Z,98123.00
2022-11-10T08:33:40.525Z,98125.69
2022-11-10T08:37:01.133Z,98131.44
2022-11-10T08:40:21.607Z,98185.94
2022-11-10T08:43:42.049Z,98139.22
2022-11-10T08:47:02.207Z,98130.22
2022-11-10T08:50:22.184Z,98143.94
2022-11-10T08:53:42.150Z,98163.47
2022-11-10T08:57:03.883Z,98154.31
2022-11-10T09:00:24.117Z,98149.75
2022-11-10T09:03:44.296Z,98180.47
2022-11-10T09:07:05.020Z,98196.84
2022-11-10T09:10:25.381Z,98189.59
2022-11-10T09:13:45.436Z,98211.03
2022-11-10T09:17:05.254Z,98201.44
2022-11-10T09:20:26.250Z,98165.97
2022-11-10T09:23:46.115Z,98232.53
2022-11-10T09:27:06.784Z,98177.06
2022-11-10T09:30:26.642Z,98209.34
2022-11-10T09:33:46.713Z,98193.78
2022-11-10T09:37:06.558Z,98197.59
2022-11-10T09:40:39.518Z,98182.38
2022-11-10T09:44:04.057Z,98166.59
2022-11-10T09:51:07.232Z,98197.66
2022-11-10T09:54:33.817Z,98202.34
2022-11-10T09:57:53.769Z,98192.13
2022-11-10T10:01:32.861Z,98202.66
2022-11-10T10:04:53.216Z,98215.28
2022-11-10T10:08:20.089Z,98226.16
2022-11-10T10:11:53.264Z,98285.69
2022-11-10T10:15:19.601Z,98268.38
2022-11-10T10:18:39.830Z,98240.66
2022-11-10T10:22:18.992Z,98196.69
2022-11-10T10:25:39.315Z,98244.72
2022-11-10T10:29:02.193Z,98249.63
2022-11-10T10:32:22.777Z,98238.44
2022-11-10T10:35:43.291Z,98265.38
2022-11-10T10:39:05.675Z,98252.94
2022-11-10T10:42:31.136Z,98270.28
2022-11-10T10:46:04.369Z,98265.69
2022-11-10T10:49:31.570Z,98240.94
2022-11-10T10:53:05.584Z,98235.06
2022-11-10T10:56:27.205Z,98252.44
2022-11-10T10:59:47.334Z,98278.31
2022-11-10T11:03:24.720Z,98264.06
2022-11-10T11:06:45.008Z,98287.03
2022-11-10T11:10:22.388Z,98281.06
2022-11-10T11:13:42.506Z,98274.25
2022-11-10T11:17:16.884Z,98286.25
2022-11-10T11:20:51.938Z,98281.81
2022-11-10T11:24:21.072Z,98293.31
2022-11-10T11:27:56.465Z,98292.69
2022-11-10T11:31:22.544Z,98282.03
2022-11-10T11:34:48.741Z,98280.66
2022-11-10T11:38:14.683Z,98267.72
2022-11-10T11:41:50.639Z,98274.34
2022-11-10T11:45:18.489Z,98301.13
2022-11-10T11:48:44.248Z,98286.25
2022-11-10T11:52:04.219Z,98281.50
2022-11-10T11:55:24.158Z,98279.97
2022-11-10T11:58:49.560Z,98286.94
2022-11-10T12:02:28.251Z,98297.66
2022-11-10T12:05:51.584Z,98286.63
2022-11-10T12:09:17.458Z,98308.66
2022-11-10T12:12:43.455Z,98276.41
2022-11-10T12:16:23.088Z,98280.97
2022-11-10T12:19:45.944Z,98274.00
2022-11-10T12:23:12.585Z,98280.91
2022-11-10T12:26:53.868Z,98250.69
2022-11-10T12:30:14.673Z,98259.50
2022-11-10T12:33:40.753Z,98290.22
2022-11-10T12:37:06.809Z,98298.59
2022-11-10T12:40:41.998Z,98269.94
2022-11-10T12:44:04.649Z,98249.31
2022-11-10T12:47:27.236Z,98270.09
2022-11-10T12:50:52.886Z,98232.91
2022-11-10T12:54:16.646Z,98325.75
2022-11-10T12:57:43.096Z,98224.47
2022-11-10T13:01:03.976Z,98234.28
2022-11-10T13:04:24.297Z,98283.34
2022-11-10T13:07:44.663Z,98249.44
2022-11-10T13:11:18.587Z,98229.91
2022-11-10T13:14:38.689Z,98269.16
2022-11-10T13:17:59.168Z,98283.66
2022-11-10T13:21:19.032Z,98264.44
2022-11-10T13:24:39.672Z,98285.38
2022-11-10T13:27:59.753Z,98293.53
2022-11-10T13:31:30.988Z,98276.72
2022-11-10T13:34:51.476Z,98271.22
2022-11-10T13:38:30.417Z,98286.81
2022-11-10T13:41:51.079Z,98411.34
2022-11-10T13:45:30.060Z,98314.84
2022-11-10T13:48:55.536Z,98320.06
2022-11-10T13:52:15.573Z,98330.47
2022-11-10T13:55:38.586Z,98306.69
2022-11-10T13:58:58.555Z,98324.19
2022-11-10T14:02:34.071Z,98317.56
2022-11-10T14:05:57.342Z,98309.53
2022-11-10T14:09:17.423Z,98300.25
2022-11-10T14:12:37.160Z,98311.41
2022-11-10T14:15:56.978Z,98350.50
2022-11-10T14:19:23.652Z,98330.16
2022-11-10T14:22:43.886Z,98319.88
2022-11-10T14:26:05.328Z,98320.06
2022-11-10T14:29:30.354Z,98323.22
2022-11-10T14:32:56.661Z,98301.31
2022-11-10T14:36:16.888Z,98345.22
2022-11-10T14:39:36.979Z,98333.09
2022-11-10T14:42:57.217Z,98342.03
2022-11-10T14:46:17.304Z,98339.97
2022-11-10T14:49:37.654Z,98365.31
2022-11-10T14:53:02.623Z,98367.06
2022-11-10T14:56:23.736Z,98351.47
2022-11-10T14:59:43.764Z,98294.06
2022-11-10T15:03:04.028Z,98347.78
2022-11-10T15:06:24.364Z,98383.75
2022-11-10T15:10:01.431Z,98355.44
2022-11-10T15:13:27.595Z,98358.03
2022-11-10T15:17:07.634Z,98344.78
2022-11-10T15:20:27.917Z,98363.75
2022-11-10T15:23:57.491Z,98377.00
2022-11-10T15:27:24.393Z,98372.75
2022-11-10T15:30:58.020Z,98347.97
2022-11-10T15:34:47.685Z,98355.41
2022-11-10T15:38:19.649Z,98355.41
2022-11-10T15:41:45.268Z,98339.78
2022-11-10T15:45:05.663Z,98351.31
2022-11-10T15:48:26.657Z,98335.09
2022-11-10T15:51:46.599Z,98343.56
2022-11-10T15:55:06.634Z,98371.63
2022-11-10T15:58:27.350Z,98351.75
2022-11-10T16:01:47.391Z,98365.00
2022-11-10T16:05:11.476Z,98363.25
2022-11-10T16:08:32.291Z,98372.41
2022-11-10T16:11:52.407Z,98357.72
2022-11-10T16:15:14.346Z,98369.22
2022-11-10T16:18:34.226Z,98366.06
2022-11-10T16:21:54.497Z,98353.78
2022-11-10T16:25:21.569Z,98366.38
2022-11-10T16:28:44.418Z,98367.00
2022-11-10T16:32:04.696Z,98340.53
2022-11-10T16:35:24.767Z,98359.59
2022-11-10T16:38:45.360Z,98358.97
2022-11-10T16:42:05.307Z,98390.81
2022-11-10T16:45:30.193Z,98372.38
2022-11-10T16:48:50.574Z,98365.59
2022-11-10T16:52:16.691Z,98361.81
2022-11-10T16:55:36.881Z,98361.66
2022-11-10T16:58:56.753Z,98359.47
2022-11-10T17:02:28.199Z,98368.63
2022-11-10T17:05:48.239Z,98376.03
2022-11-10T17:09:09.233Z,98376.81
2022-11-10T17:12:29.249Z,98373.50
2022-11-10T17:15:49.075Z,98376.03
2022-11-10T17:19:23.495Z,98396.53
2022-11-10T17:22:44.471Z,98380.78
2022-11-10T17:26:05.093Z,98385.16
2022-11-10T17:29:25.739Z,98390.53
2022-11-10T17:33:04.077Z,98386.59
2022-11-10T17:36:25.832Z,98384.38
2022-11-10T17:39:46.151Z,98405.97
2022-11-10T17:43:08.615Z,98402.00
2022-11-10T17:46:28.807Z,98400.09
2022-11-10T17:49:48.811Z,98398.06
2022-11-10T17:53:17.817Z,98388.44
2022-11-10T17:56:37.761Z,98402.00
2022-11-10T17:59:58.219Z,98394.47
2022-11-10T18:03:19.895Z,98420.94
2022-11-10T18:06:40.112Z,98431.97
2022-11-10T18:10:00.383Z,98422.22
2022-11-10T18:13:20.572Z,98415.75
2022-11-10T18:16:41.771Z,98411.81
2022-11-10T18:20:01.579Z,98428.38
2022-11-10T18:23:21.900Z,98412.91
2022-11-10T18:26:42.641Z,98405.97
2022-11-10T18:30:03.265Z,98429.31
2022-11-10T18:33:23.494Z,98399.66
2022-11-10T18:36:43.601Z,98428.81
2022-11-10T18:40:03.727Z,98420.66
2022-11-10T18:43:24.162Z,98454.81
2022-11-10T18:46:45.229Z,98439.53
2022-11-10T18:50:05.724Z,98471.69
2022-11-10T18:53:25.867Z,98448.22
2022-11-10T18:56:45.846Z,98479.41
2022-11-10T19:00:07.115Z,98455.69
2022-11-10T19:03:26.847Z,98451.72
2022-11-10T19:06:51.847Z,98445.31
2022-11-10T19:10:12.081Z,98430.22
2022-11-10T19:13:32.096Z,98476.22
2022-11-10T19:16:52.137Z,98439.03
2022-11-10T19:20:14.684Z,98457.25
2022-11-10T19:23:35.100Z,98448.72
2022-11-10T19:26:55.072Z,98427.13
2022-11-10T19:30:15.135Z,98440.03
2022-11-10T19:33:36.335Z,98443.06
2022-11-10T19:36:56.890Z,98445.59
2022-11-10T19:40:16.899Z,98425.47
2022-11-10T19:43:36.810Z,98421.06
2022-11-10T19:46:56.854Z,98445.53
2022-11-10T19:50:16.708Z,98440.34
2022-11-10T19:53:36.732Z,98449.47
2022-11-10T19:56:56.595Z,98463.19
2022-11-10T20:00:16.892Z,98441.44
2022-11-10T20:03:36.924Z,98452.16
2022-11-10T20:07:15.677Z,98455.94
2022-11-10T20:10:35.902Z,98476.78
2022-11-10T20:13:56.918Z,98474.56
2022-11-10T20:17:17.228Z,98488.75
2022-11-10T20:20:37.621Z,98461.69
2022-11-10T20:23:57.771Z,98460.69
2022-11-10T20:27:18.127Z,98462.09
2022-11-10T20:30:38.221Z,98461.03
2022-11-10T20:33:58.347Z,98459.34
2022-11-10T20:37:18.505Z,98455.72
2022-11-10T20:40:44.515Z,98489.28
2022-11-10T20:44:05.030Z,98482.53
2022-11-10T20:47:26.358Z,98470.34
2022-11-10T20:50:46.575Z,98482.97
2022-11-10T20:54:06.393Z,98465.66
2022-11-10T20:57:26.309Z,98501.56
2022-11-10T21:00:46.277Z,98504.41
2022-11-10T21:04:06.781Z,98496.69
2022-11-10T21:07:27.486Z,98528.25
2022-11-10T21:10:51.910Z,98507.59
2022-11-10T21:14:11.984Z,98513.91
2022-11-10T21:17:31.904Z,98487.19
2022-11-10T21:20:52.883Z,98484.09
2022-11-10T21:24:13.541Z,98502.06
2022-11-10T21:27:33.900Z,98492.44
2022-11-10T21:31:01.639Z,98497.94
2022-11-10T21:34:21.656Z,98518.16
2022-11-10T21:37:41.601Z,98524.16
2022-11-10T21:41:01.393Z,98519.88
2022-11-10T21:44:21.194Z,98540.88
2022-11-10T21:47:41.289Z,98536.94
2022-11-10T21:51:05.647Z,98551.13
2022-11-10T21:54:25.748Z,98529.03
2022-11-10T21:57:45.971Z,98536.28
2022-11-10T22:01:16.888Z,98547.47
2022-11-10T22:04:36.998Z,98550.66
2022-11-10T22:07:57.501Z,98600.50
2022-11-10T22:11:39.761Z,98580.00
2022-11-10T22:15:18.643Z,98569.44
2022-11-10T22:18:39.725Z,98594.22
2022-11-10T22:22:03.672Z,98553.50
2022-11-10T22:25:24.039Z,98576.69
2022-11-10T22:28:43.973Z,98562.31
2022-11-10T22:32:03.938Z,98563.41
2022-11-10T22:35:42.669Z,98566.41
2022-11-10T22:39:04.086Z,98577.75
2022-11-10T22:42:43.313Z,98569.28
2022-11-10T22:46:03.572Z,98572.13
2022-11-10T22:49:23.979Z,98575.44
2022-11-10T22:52:44.093Z,98596.91
2022-11-10T22:56:04.294Z,98578.75
2022-11-10T22:59:24.424Z,98588.25
2022-11-10T23:02:44.837Z,98619.47
2022-11-10T23:06:05.148Z,98594.38
2022-11-10T23:09:25.362Z,98611.59
2022-11-10T23:12:45.272Z,98604.44
2022-11-10T23:16:06.580Z,98613.59
2022-11-10T23:19:31.409Z,98613.31
2022-11-10T23:22:51.235Z,98621.19
2022-11-10T23:26:15.132Z,98615.94
2022-11-10T23:29:34.978Z,98614.84
2022-11-10T23:32:55.233Z,98608.38
2022-11-10T23:36:16.349Z,98610.44
2022-11-10T23:39:36.360Z,98617.19
2022-11-10T23:42:56.111Z,98607.06
2022-11-10T23:46:15.935Z,98618.91
2022-11-10T23:49:35.836Z,98612.75
2022-11-10T23:52:55.725Z,98617.94
2022-11-10T23:56:15.884Z,98645.31
2022-11-10T23:59:36.035Z,98615.06
